Impacts METAR Board INFO
IDs:

KATL - Atlanta/Hartsfield-J, GA, US

Updated at: 2203 UTC 24 Feb 2018
Potential Impact None Slight Moderate High
Time24/10Z 24/11Z 24/12Z 24/13Z 24/14Z 24/15Z 24/16Z 24/17Z 24/18Z 24/19Z 24/20Z 24/21Z 24/22Z
VIS10 10 10 9 9 10 10 10 10 10 10 10 10
CIG75 70 120 120 110 120 120 120 130 44 -- -- 250
CoverBKNBKNBKNBKNBKNBKNBKNBKNBKNBKNSCTSCTBKN
FltCatVFRVFRVFRVFRVFRVFRVFRVFRVFRVFRVFRVFRVFR
WX--------------------------
WDir0170170180190210210210200200230210210
WSpd0 4 8 7 7 8 11 14 17 11 15 14 13
WGst-- -- -- -- -- -- -- 18 25 25 21 20 19
Raw hourly METARs
KATL 240952Z 00000KT 10SM SCT055 BKN075 18/15 A3020 RMK AO2 SLP218 T01830150
KATL 241052Z 17004KT 10SM FEW055 BKN070 BKN120 18/16 A3019 RMK AO2 SLP218 T01780156
KATL 241152Z COR 17008KT 10SM FEW070 BKN120 18/16 A3019 RMK AO2 SLP219 T01780156 10194 20172 56002
KATL 241252Z 18007KT 9SM FEW070 BKN120 17/16 A3021 RMK AO2 SLP223 T01720156
KATL 241352Z 19007KT 9SM FEW070 BKN110 BKN150 18/16 A3021 RMK AO2 SLP225 T01780161
KATL 241452Z 21008KT 10SM BKN120 BKN200 19/16 A3022 RMK AO2 SLP226 T01940161 51007
KATL 241552Z 21011KT 10SM BKN120 BKN200 22/16 A3021 RMK AO2 SLP223 T02170156
KATL 241652Z 21014G18KT 10SM FEW030 BKN120 23/16 A3019 RMK AO2 SLP216 T02330156
KATL 241752Z 20017G25KT 10SM SCT044 BKN130 25/16 A3015 RMK AO2 SLP201 T02500156 10250 20172 58022
KATL 241852Z 20011G25KT 10SM BKN044 BKN120 26/15 A3011 RMK AO2 SLP189 T02560150
KATL 241952Z 23015G21KT 10SM SCT050 SCT120 26/14 A3008 RMK AO2 SLP177 T02560144
KATL 242052Z 21014G20KT 10SM SCT050 SCT075 26/14 A3006 RMK AO2 SLP170 T02610144 56029
KATL 242152Z 21013G19KT 10SM FEW050 SCT080 BKN250 25/14 A3005 RMK AO2 SLP167 T02500139